Time;durP1;ratioP1;P1;durP2;ratioP2;P2;SDS_P1;SDS_P2;PMS_P1;PMS_P2;Temp;Humidity;BMP_temperature;BMP_pressure;BME280_temperature;BME280_humidity;BME280_pressure;Samples;Min_cycle;Max_cycle;Signal;HPM_P1;HPM_P2
2023/09/10 00:00:38;;;;;;;9.80;6.20;;;;;;;13.76;59.72;101381.33;105137;1263;60559;-67
2023/09/10 00:03:06;;;;;;;11.50;5.50;;;;;;;13.71;59.87;101381.51;105527;1258;60825;-67
2023/09/10 00:05:33;;;;;;;7.50;5.20;;;;;;;13.71;59.62;101382.45;105050;1257;64901;-66
2023/09/10 00:08:01;;;;;;;8.60;5.30;;;;;;;13.70;59.55;101381.23;106320;1257;61341;-67
2023/09/10 00:10:28;;;;;;;10.20;5.90;;;;;;;13.69;59.33;101380.12;105825;1257;63729;-62
2023/09/10 00:12:56;;;;;;;8.60;5.60;;;;;;;13.67;59.20;101386.83;104889;1256;60418;-67
2023/09/10 00:15:26;;;;;;;9.60;5.40;;;;;;;13.64;58.99;101390.21;104839;1257;60530;-66
2023/09/10 00:17:54;;;;;;;8.90;5.90;;;;;;;13.59;58.97;101389.19;104932;1257;64491;-62
2023/09/10 00:20:22;;;;;;;9.80;6.30;;;;;;;13.54;59.04;101392.88;105057;1257;61321;-68
2023/09/10 00:22:49;;;;;;;10.00;6.00;;;;;;;13.50;59.15;101391.05;104857;1257;63929;-65
2023/09/10 00:25:17;;;;;;;10.20;6.10;;;;;;;13.45;59.21;101392.86;105063;1257;60696;-67
2023/09/10 00:27:44;;;;;;;10.50;6.10;;;;;;;13.38;59.24;101394.23;105127;1260;60386;-68
2023/09/10 00:30:12;;;;;;;8.80;5.50;;;;;;;13.36;59.23;101395.09;105732;1260;63735;-66
2023/09/10 00:32:40;;;;;;;9.90;5.90;;;;;;;13.37;59.24;101398.04;106226;1257;60645;-63
2023/09/10 00:35:08;;;;;;;11.90;6.20;;;;;;;13.35;59.50;101398.70;105075;1254;64180;-62
2023/09/10 00:37:36;;;;;;;9.80;5.80;;;;;;;13.32;59.62;101396.25;105474;1254;60549;-63
2023/09/10 00:40:05;;;;;;;12.60;7.20;;;;;;;13.29;59.60;101394.08;105150;1254;60440;-64
2023/09/10 00:42:33;;;;;;;12.30;7.20;;;;;;;13.23;59.44;101391.46;105448;1254;64937;-64
2023/09/10 00:45:00;;;;;;;12.30;6.90;;;;;;;13.16;59.34;101391.10;105114;1254;72828;-65
2023/09/10 00:47:28;;;;;;;10.70;6.50;;;;;;;13.11;59.57;101394.17;106083;1258;63791;-65
2023/09/10 00:49:55;;;;;;;10.80;7.20;;;;;;;13.07;59.69;101397.97;106565;1259;60552;-66
2023/09/10 00:52:23;;;;;;;9.20;6.20;;;;;;;13.04;59.85;101399.94;105112;1258;60552;-64
2023/09/10 00:54:51;;;;;;;14.60;6.60;;;;;;;13.05;59.84;101402.32;106577;1254;65464;-65
2023/09/10 00:57:19;;;;;;;8.70;5.60;;;;;;;13.07;59.71;101406.05;105028;1254;60365;-64
2023/09/10 00:59:46;;;;;;;10.70;6.10;;;;;;;13.05;59.55;101406.59;105078;1260;63695;-64
2023/09/10 01:02:15;;;;;;;12.60;6.10;;;;;;;13.01;59.30;101411.11;105209;1254;60539;-63
2023/09/10 01:04:43;;;;;;;9.30;5.90;;;;;;;12.96;59.23;101407.74;105218;1260;59427;-63
2023/09/10 01:07:10;;;;;;;10.80;6.40;;;;;;;12.93;59.38;101410.79;104924;1254;294531;-64
2023/09/10 01:11:27;;;;;;;9.50;6.00;;;;;;;12.76;60.22;101409.21;102096;1291;601383;-65
2023/09/10 01:14:11;;;;;;;12.90;6.70;;;;;;;12.86;59.85;101407.09;104574;1273;59745;-65
2023/09/10 01:16:42;;;;;;;8.90;5.50;;;;;;;12.84;59.83;101408.85;104183;1268;60137;-66
2023/09/10 01:19:44;;;;;;;11.60;5.50;;;;;;;12.86;59.96;101410.30;104944;1272;64344;-66
2023/09/10 01:22:18;;;;;;;10.90;5.50;;;;;;;12.90;60.22;101412.77;104234;1269;61391;-65
2023/09/10 01:24:49;;;;;;;9.70;5.70;;;;;;;12.95;60.41;101412.96;104017;1271;246850;-65
2023/09/10 01:27:17;;;;;;;10.80;5.90;;;;;;;12.98;60.60;101409.04;104575;1269;59307;-66
2023/09/10 01:29:45;;;;;;;9.10;6.20;;;;;;;12.98;60.57;101410.77;105151;1265;59347;-70
2023/09/10 01:32:38;;;;;;;11.30;6.50;;;;;;;12.97;60.54;101409.63;104371;1271;63333;-60
2023/09/10 01:35:23;;;;;;;8.50;5.50;;;;;;;12.93;60.55;101411.85;105297;1267;60119;-60
2023/09/10 01:37:57;;;;;;;11.70;5.00;;;;;;;12.82;60.56;101411.88;104774;1271;63777;-59
2023/09/10 01:40:28;;;;;;;11.10;5.60;;;;;;;12.73;60.57;101413.11;104725;1266;59816;-64
2023/09/10 01:42:55;;;;;;;10.40;5.90;;;;;;;12.65;60.64;101412.84;105013;1268;59757;-60
2023/09/10 01:45:23;;;;;;;7.80;4.90;;;;;;;12.60;60.69;101415.66;104205;1270;64126;-62
2023/09/10 01:47:50;;;;;;;10.10;5.80;;;;;;;12.59;60.68;101413.97;104348;1273;60292;-68
2023/09/10 01:50:18;;;;;;;8.10;5.10;;;;;;;12.57;60.62;101411.81;104743;1260;62462;-65
2023/09/10 01:52:46;;;;;;;8.90;5.40;;;;;;;12.51;60.54;101412.92;104622;1267;59802;-67
2023/09/10 01:55:14;;;;;;;9.90;5.70;;;;;;;12.44;60.68;101412.23;104579;1265;59646;-67
2023/09/10 01:57:42;;;;;;;10.30;5.30;;;;;;;12.38;60.71;101414.92;104753;1262;62883;-67
2023/09/10 02:00:10;;;;;;;5.00;2.20;;;;;;;12.27;60.96;101417.49;104646;1267;60296;-68
2023/09/10 02:02:40;;;;;;;11.30;5.40;;;;;;;12.14;61.23;101416.13;104795;1263;75211;-65
2023/09/10 02:05:08;;;;;;;8.80;5.70;;;;;;;12.07;61.34;101416.44;104566;1260;59759;-66
2023/09/10 02:07:36;;;;;;;9.90;5.60;;;;;;;12.11;61.51;101417.75;104634;1265;59680;-61
2023/09/10 02:10:04;;;;;;;5.00;2.10;;;;;;;12.15;61.74;101419.54;104720;1259;62843;-66
2023/09/10 02:12:33;;;;;;;9.20;5.00;;;;;;;12.15;61.99;101416.40;105788;1264;69631;-65
2023/09/10 02:15:03;;;;;;;8.60;5.70;;;;;;;12.13;62.17;101413.34;105027;1261;63775;-65
2023/09/10 02:17:31;;;;;;;11.00;6.10;;;;;;;12.12;62.24;101408.89;105778;1266;60398;-65
2023/09/10 02:19:59;;;;;;;9.80;5.80;;;;;;;12.09;62.24;101407.30;105126;1265;59572;-64
2023/09/10 02:22:26;;;;;;;8.90;5.10;;;;;;;12.05;62.30;101409.13;104687;1260;64112;-62
2023/09/10 02:24:54;;;;;;;10.30;5.30;;;;;;;12.07;62.35;101408.49;104701;1265;61450;-63
2023/09/10 02:27:21;;;;;;;8.40;4.60;;;;;;;12.10;62.27;101405.83;104646;1261;63694;-62
2023/09/10 02:29:49;;;;;;;12.10;5.60;;;;;;;12.09;62.27;101409.55;104605;1263;59659;-63
2023/09/10 02:32:16;;;;;;;9.80;5.20;;;;;;;12.07;62.26;101411.48;104606;1260;59676;-61
2023/09/10 02:34:44;;;;;;;9.40;5.00;;;;;;;12.02;62.30;101411.79;104703;1261;62863;-64
2023/09/10 02:37:14;;;;;;;9.60;5.40;;;;;;;11.98;62.41;101412.27;104688;1264;61470;-66
2023/09/10 02:39:42;;;;;;;10.30;5.80;;;;;;;11.95;62.51;101409.70;104685;1266;63746;-65
2023/09/10 02:42:09;;;;;;;9.50;5.10;;;;;;;11.93;62.66;101405.81;105484;1265;59654;-64
2023/09/10 02:44:37;;;;;;;5.10;1.60;;;;;;;11.96;62.44;101406.65;104691;1265;59763;-60
2023/09/10 02:47:04;;;;;;;11.40;4.70;;;;;;;11.99;62.27;101411.68;104453;1266;71828;-61
2023/09/10 02:49:32;;;;;;;8.00;5.20;;;;;;;12.00;62.16;101411.98;104766;1266;62063;-59
2023/09/10 02:52:00;;;;;;;9.50;5.60;;;;;;;11.97;62.23;101412.67;106690;1260;63800;-60
2023/09/10 02:54:28;;;;;;;7.70;4.80;;;;;;;11.93;62.23;101408.77;104478;1267;60229;-59
2023/09/10 02:56:56;;;;;;;9.70;5.30;;;;;;;11.88;62.32;101412.09;105237;1263;59727;-59
2023/09/10 02:59:25;;;;;;;9.10;5.20;;;;;;;11.82;62.47;101408.78;105066;1261;66360;-59
2023/09/10 03:01:53;;;;;;;8.40;5.00;;;;;;;11.78;62.51;101413.64;105899;1253;62521;-60
2023/09/10 03:04:21;;;;;;;8.60;5.00;;;;;;;11.72;62.43;101414.69;106142;1254;64445;-60
2023/09/10 03:06:49;;;;;;;5.90;2.30;;;;;;;11.70;62.45;101415.05;104956;1256;59596;-60
2023/09/10 03:09:17;;;;;;;8.30;5.00;;;;;;;11.70;62.40;101417.12;105170;1253;59673;-61
2023/09/10 03:11:45;;;;;;;8.40;4.80;;;;;;;11.72;62.42;101414.55;105086;1260;64089;-61
2023/09/10 03:14:13;;;;;;;9.90;5.30;;;;;;;11.73;62.29;101412.61;105145;1254;61909;-59
2023/09/10 03:16:40;;;;;;;9.50;5.40;;;;;;;11.69;62.14;101413.33;105224;1254;62449;-60
2023/09/10 03:19:10;;;;;;;8.90;5.30;;;;;;;11.65;62.12;101412.20;104887;1257;59773;-58
2023/09/10 03:21:38;;;;;;;8.90;5.80;;;;;;;11.61;61.99;101414.94;105132;1258;59460;-63
2023/09/10 03:24:06;;;;;;;8.50;5.30;;;;;;;11.53;61.90;101416.34;104985;1257;64150;-61
2023/09/10 03:26:34;;;;;;;10.40;6.20;;;;;;;11.44;62.02;101419.11;107016;1254;61390;-61
2023/09/10 03:29:02;;;;;;;10.00;5.70;;;;;;;11.38;62.22;101424.08;104920;1254;64239;-63
2023/09/10 03:31:30;;;;;;;10.10;5.80;;;;;;;11.39;62.32;101422.23;105458;1254;59729;-66
2023/09/10 03:33:58;;;;;;;10.50;6.00;;;;;;;11.42;62.29;101426.27;104928;1257;59265;-64
2023/09/10 03:36:26;;;;;;;10.00;5.90;;;;;;;11.42;62.34;101429.61;105117;1257;64747;-63
2023/09/10 03:38:53;;;;;;;9.20;5.40;;;;;;;11.41;62.43;101430.55;105642;1254;61849;-59
2023/09/10 03:41:21;;;;;;;7.20;2.70;;;;;;;11.37;62.50;101433.95;105015;1254;64138;-63
2023/09/10 03:43:48;;;;;;;12.50;7.80;;;;;;;11.32;62.60;101437.61;104891;1254;59407;-62
2023/09/10 03:46:16;;;;;;;12.00;7.90;;;;;;;11.28;62.78;101437.37;104875;1254;59691;-59
2023/09/10 03:48:44;;;;;;;11.60;7.20;;;;;;;11.25;62.99;101439.17;105123;1257;64202;-60
2023/09/10 03:51:11;;;;;;;8.90;3.70;;;;;;;11.28;62.94;101442.26;105336;1257;61360;-62
2023/09/10 03:53:39;;;;;;;10.60;6.20;;;;;;;11.33;62.88;101444.56;105331;1253;64182;-63
2023/09/10 03:56:07;;;;;;;10.10;6.40;;;;;;;11.39;62.81;101441.07;104993;1254;59962;-60
2023/09/10 03:58:34;;;;;;;12.20;6.30;;;;;;;11.40;62.80;101435.02;105010;1254;59537;-58
2023/09/10 04:01:02;;;;;;;12.50;6.20;;;;;;;11.40;62.81;101430.79;105003;1253;64597;-59
2023/09/10 04:03:30;;;;;;;9.60;5.90;;;;;;;11.40;62.88;101431.63;105083;1254;61341;-59
2023/09/10 04:05:57;;;;;;;9.90;6.00;;;;;;;11.40;63.09;101429.75;105015;1257;63748;-59
2023/09/10 04:08:25;;;;;;;9.70;6.30;;;;;;;11.41;63.30;101433.15;105096;1257;59749;-59
2023/09/10 04:10:52;;;;;;;7.10;2.30;;;;;;;11.47;63.34;101432.21;105025;1257;59590;-64
2023/09/10 04:13:20;;;;;;;11.50;6.10;;;;;;;11.55;63.35;101433.30;105083;1258;64334;-65
2023/09/10 04:15:48;;;;;;;6.60;2.90;;;;;;;11.62;63.30;101432.81;104840;1260;60962;-62
2023/09/10 04:18:16;;;;;;;10.00;5.40;;;;;;;11.67;63.49;101435.98;106845;1253;63764;-61
2023/09/10 04:20:44;;;;;;;10.80;6.30;;;;;;;11.72;63.61;101434.96;105091;1253;59744;-60
2023/09/10 04:23:11;;;;;;;10.10;6.10;;;;;;;11.77;63.58;101440.77;105118;1259;60128;-61
2023/09/10 04:25:39;;;;;;;11.70;6.70;;;;;;;11.82;63.69;101442.73;105106;1254;64481;-60
2023/09/10 04:28:07;;;;;;;9.20;6.10;;;;;;;11.86;63.69;101441.18;105175;1257;69961;-59
2023/09/10 04:30:34;;;;;;;10.50;6.00;;;;;;;11.93;63.62;101440.23;105293;1259;73353;-58
2023/09/10 04:33:03;;;;;;;9.70;5.70;;;;;;;12.01;63.65;101439.52;104911;1257;60789;-66
2023/09/10 04:35:30;;;;;;;10.20;6.50;;;;;;;12.12;63.63;101438.73;105449;1254;60044;-60
2023/09/10 04:37:58;;;;;;;11.60;7.10;;;;;;;12.21;63.71;101439.55;105479;1254;64106;-61
2023/09/10 04:40:26;;;;;;;11.40;6.10;;;;;;;12.27;63.68;101434.86;105130;1256;60084;-60
2023/09/10 04:42:53;;;;;;;9.70;6.50;;;;;;;12.33;63.66;101438.00;105106;1254;63708;-60
2023/09/10 04:45:21;;;;;;;5.00;2.20;;;;;;;12.38;63.62;101437.77;105842;1255;59369;-60
2023/09/10 04:47:48;;;;;;;12.20;6.90;;;;;;;12.42;63.58;101434.14;105096;1260;60452;-62
2023/09/10 04:50:16;;;;;;;8.90;6.30;;;;;;;12.47;63.65;101434.73;104764;1260;64190;-62
2023/09/10 04:52:44;;;;;;;10.40;6.80;;;;;;;12.55;63.67;101431.34;106811;1254;60140;-63
2023/09/10 04:55:11;;;;;;;9.40;7.10;;;;;;;12.65;63.71;101428.65;104948;1254;63670;-61
2023/09/10 04:57:39;;;;;;;11.70;7.60;;;;;;;12.75;63.70;101430.39;104776;1257;59687;-62
2023/09/10 05:00:10;;;;;;;12.80;8.00;;;;;;;12.83;63.75;101431.75;104900;1253;59829;-59
2023/09/10 05:02:38;;;;;;;11.70;7.60;;;;;;;12.90;63.90;101431.79;106019;1253;64729;-64
2023/09/10 05:05:06;;;;;;;14.20;9.90;;;;;;;12.98;63.88;101432.24;104954;1254;60176;-62
2023/09/10 05:07:34;;;;;;;10.70;8.20;;;;;;;13.04;63.89;101431.66;107952;1256;64641;-64
2023/09/10 05:10:02;;;;;;;13.60;8.80;;;;;;;13.14;63.94;101433.23;105034;1253;59759;-64
2023/09/10 05:12:30;;;;;;;23.70;8.70;;;;;;;13.25;64.02;101431.69;105539;1257;59660;-65
2023/09/10 05:14:57;;;;;;;13.00;8.80;;;;;;;13.36;63.99;101428.23;106291;1254;64115;-62
2023/09/10 05:17:25;;;;;;;12.30;8.10;;;;;;;13.45;63.96;101430.58;105731;1253;61368;-69
2023/09/10 05:19:53;;;;;;;12.20;8.10;;;;;;;13.52;63.88;101433.96;105518;1259;62515;-60
2023/09/10 05:22:20;;;;;;;11.90;7.70;;;;;;;13.56;64.05;101433.61;105659;1259;60323;-65
2023/09/10 05:24:48;;;;;;;11.40;7.10;;;;;;;13.62;63.90;101438.50;105212;1254;60390;-62
2023/09/10 05:27:15;;;;;;;11.30;7.60;;;;;;;13.66;63.89;101436.73;105261;1253;64949;-57
2023/09/10 05:29:44;;;;;;;12.20;6.90;;;;;;;13.76;63.80;101436.20;105343;1253;61413;-59
2023/09/10 05:32:12;;;;;;;10.50;6.80;;;;;;;13.85;63.39;101437.10;105027;1256;64232;-60
2023/09/10 05:34:39;;;;;;;11.10;6.60;;;;;;;13.94;63.07;101432.80;105185;1257;60560;-64
2023/09/10 05:37:07;;;;;;;11.60;7.20;;;;;;;14.02;62.82;101429.27;105016;1255;60448;-60
2023/09/10 05:39:35;;;;;;;11.30;7.50;;;;;;;14.11;62.72;101426.98;104901;1260;65511;-63
2023/09/10 05:42:03;;;;;;;11.40;7.20;;;;;;;14.20;62.68;101426.73;104965;1254;61485;-61
2023/09/10 05:44:30;;;;;;;9.40;7.00;;;;;;;14.28;62.27;101431.02;105189;1256;65827;-62
2023/09/10 05:46:58;;;;;;;11.20;7.10;;;;;;;14.34;61.66;101428.69;104811;1257;60453;-60
2023/09/10 05:49:26;;;;;;;11.80;6.60;;;;;;;14.38;61.31;101433.67;106139;1258;60471;-66
2023/09/10 05:51:53;;;;;;;11.70;7.50;;;;;;;14.45;61.14;101438.38;105070;1254;64957;-61
2023/09/10 05:54:21;;;;;;;10.40;6.40;;;;;;;14.56;60.88;101441.21;104939;1254;60371;-61
2023/09/10 05:56:48;;;;;;;10.10;6.40;;;;;;;14.64;60.59;101442.55;104921;1259;64109;-61
2023/09/10 05:59:16;;;;;;;10.00;6.60;;;;;;;14.72;60.54;101442.79;105598;1254;60450;-55
2023/09/10 06:01:44;;;;;;;10.20;6.30;;;;;;;14.80;60.44;101444.46;104926;1255;60699;-59
2023/09/10 06:04:12;;;;;;;9.70;6.80;;;;;;;14.88;60.49;101447.33;105799;1253;63692;-57
2023/09/10 06:06:39;;;;;;;11.90;6.40;;;;;;;14.97;60.48;101448.69;104603;1253;61382;-54
2023/09/10 06:09:07;;;;;;;9.40;6.50;;;;;;;15.11;60.19;101448.81;104703;1254;62531;-57
2023/09/10 06:11:35;;;;;;;8.00;5.50;;;;;;;15.24;59.93;101450.19;104510;1259;61147;-56
2023/09/10 06:14:02;;;;;;;9.30;5.80;;;;;;;15.37;59.81;101449.16;104779;1257;60432;-58
2023/09/10 06:16:30;;;;;;;8.30;5.90;;;;;;;15.49;59.83;101454.88;104792;1253;65027;-57
2023/09/10 06:18:58;;;;;;;9.70;6.10;;;;;;;15.58;59.53;101454.82;104568;1257;61303;-56
2023/09/10 06:21:25;;;;;;;12.10;6.80;;;;;;;15.66;59.16;101455.20;104959;1254;65250;-56
2023/09/10 06:23:53;;;;;;;16.80;6.30;;;;;;;15.70;59.11;101456.27;104893;1257;60458;-56
2023/09/10 06:26:20;;;;;;;9.50;5.90;;;;;;;15.77;58.87;101456.80;104941;1253;60557;-56
2023/09/10 06:28:48;;;;;;;10.20;5.50;;;;;;;15.87;58.73;101454.95;104961;1253;64943;-57
2023/09/10 06:31:16;;;;;;;7.80;5.00;;;;;;;15.97;58.35;101454.71;105626;1257;63877;-55
2023/09/10 06:33:43;;;;;;;8.30;5.60;;;;;;;16.07;58.05;101458.13;104817;1253;63682;-61
2023/09/10 06:36:11;;;;;;;9.10;5.30;;;;;;;16.15;57.82;101459.22;104898;1253;60450;-60
2023/09/10 06:38:40;;;;;;;9.50;5.00;;;;;;;16.21;57.50;101457.68;106086;1257;60479;-66
2023/09/10 06:41:08;;;;;;;10.30;5.00;;;;;;;16.25;56.46;101457.81;104895;1253;64919;-67
2023/09/10 06:43:36;;;;;;;10.40;5.60;;;;;;;16.28;56.27;101461.29;104973;1257;60385;-62
2023/09/10 06:46:10;;;;;;;13.20;5.30;;;;;;;16.29;56.29;101460.65;105091;1259;63680;-64
2023/09/10 06:48:38;;;;;;;8.60;5.50;;;;;;;16.31;56.27;101456.96;105045;1254;61717;-59
2023/09/10 06:51:05;;;;;;;8.40;4.70;;;;;;;16.34;56.44;101455.27;105051;1257;60438;-61
2023/09/10 06:53:34;;;;;;;6.50;3.90;;;;;;;16.43;56.23;101456.27;104794;1253;63788;-65
2023/09/10 06:56:02;;;;;;;13.00;4.40;;;;;;;16.54;56.09;101458.66;105197;1253;61605;-62
2023/09/10 06:58:29;;;;;;;7.60;4.60;;;;;;;16.63;54.92;101458.58;107277;1253;74983;-63
2023/09/10 07:01:03;;;;;;;8.10;4.70;;;;;;;16.69;54.90;101454.13;105110;1257;60543;-63
2023/09/10 07:03:32;;;;;;;9.00;4.70;;;;;;;16.77;54.83;101452.05;105082;1253;60568;-69
2023/09/10 07:06:03;;;;;;;9.10;4.50;;;;;;;16.81;54.43;101448.29;105168;1253;64996;-66
2023/09/10 07:08:31;;;;;;;8.80;4.80;;;;;;;16.84;54.00;101445.38;105641;1254;61392;-65
2023/09/10 07:10:59;;;;;;;7.40;4.30;;;;;;;16.87;53.24;101444.20;105030;1257;63772;-75
2023/09/10 07:13:27;;;;;;;8.00;4.40;;;;;;;16.92;52.86;101445.75;105112;1255;60531;-62
2023/09/10 07:15:54;;;;;;;7.00;3.40;;;;;;;16.95;52.91;101446.35;104879;1257;61370;-63
2023/09/10 07:18:22;;;;;;;7.20;4.20;;;;;;;16.99;52.10;101448.49;104911;1253;64912;-68
2023/09/10 07:20:50;;;;;;;6.90;3.80;;;;;;;17.01;51.38;101446.33;104964;1257;61166;-69
2023/09/10 07:23:17;;;;;;;6.40;3.70;;;;;;;17.04;51.28;101441.82;104887;1255;63701;-66
2023/09/10 07:25:45;;;;;;;8.10;3.90;;;;;;;17.09;51.29;101444.59;104977;1257;59719;-60
2023/09/10 07:28:12;;;;;;;6.70;3.80;;;;;;;17.16;51.33;101444.69;105132;1256;60358;-60
2023/09/10 07:30:40;;;;;;;8.30;4.00;;;;;;;17.21;51.17;101442.89;105094;1254;64866;-60
2023/09/10 07:33:10;;;;;;;6.60;3.20;;;;;;;17.27;50.67;101446.80;104881;1252;61463;-62
2023/09/10 07:35:38;;;;;;;6.40;3.50;;;;;;;17.31;50.27;101446.47;105212;1257;62588;-64
2023/09/10 07:38:05;;;;;;;6.20;2.60;;;;;;;17.36;50.00;101443.88;105058;1257;60439;-64
2023/09/10 07:40:33;;;;;;;5.00;2.50;;;;;;;17.41;49.11;101444.66;105084;1253;60610;-67
2023/09/10 07:43:02;;;;;;;6.10;2.90;;;;;;;17.48;48.44;101444.02;109037;1253;64954;-69
2023/09/10 07:45:29;;;;;;;10.00;2.80;;;;;;;17.57;47.35;101439.06;106508;1256;60424;-61
2023/09/10 07:47:59;;;;;;;6.90;2.70;;;;;;;17.66;47.09;101434.68;105025;1254;64231;-61
2023/09/10 07:50:30;;;;;;;6.90;3.30;;;;;;;17.75;47.09;101433.65;108986;1252;59679;-61
2023/09/10 07:52:57;;;;;;;4.90;2.30;;;;;;;17.84;46.63;101434.11;106420;1253;60552;-58
2023/09/10 07:55:25;;;;;;;7.50;2.80;;;;;;;17.89;46.17;101434.52;106561;1253;66808;-60
2023/09/10 07:57:53;;;;;;;7.30;2.80;;;;;;;17.94;45.66;101435.45;105015;1257;60579;-61
2023/09/10 08:00:20;;;;;;;6.40;2.70;;;;;;;18.00;45.56;101435.92;104844;1257;63712;-61
2023/09/10 08:02:48;;;;;;;6.20;2.80;;;;;;;18.08;45.17;101431.88;104934;1257;60446;-62
2023/09/10 08:05:16;;;;;;;5.30;2.80;;;;;;;18.14;44.89;101430.21;105852;1255;60368;-66
2023/09/10 08:07:43;;;;;;;5.40;2.50;;;;;;;18.24;44.41;101427.48;104969;1254;64987;-66
2023/09/10 08:10:11;;;;;;;7.60;2.60;;;;;;;18.30;43.93;101423.22;104998;1253;61926;-61
2023/09/10 08:12:38;;;;;;;6.20;2.70;;;;;;;18.33;43.80;101423.45;105009;1254;75116;-64
2023/09/10 08:15:07;;;;;;;5.00;2.10;;;;;;;18.34;43.41;101417.99;105012;1257;60380;-58
2023/09/10 08:17:35;;;;;;;5.00;2.20;;;;;;;18.45;43.89;101417.66;104893;1254;60488;-58
2023/09/10 08:20:06;;;;;;;6.40;2.70;;;;;;;18.58;44.85;101414.64;107089;1253;65345;-64
2023/09/10 08:22:34;;;;;;;7.40;2.60;;;;;;;18.69;44.52;101415.16;106257;1257;60534;-60
2023/09/10 08:25:04;;;;;;;6.00;2.90;;;;;;;18.74;43.40;101414.45;105015;1253;63967;-61
2023/09/10 08:27:31;;;;;;;5.20;2.40;;;;;;;18.78;43.59;101414.25;106100;1254;60439;-60
2023/09/10 08:29:59;;;;;;;5.20;2.20;;;;;;;18.86;42.99;101413.17;105262;1256;59591;-66
2023/09/10 08:32:27;;;;;;;5.40;2.40;;;;;;;18.93;42.53;101411.95;105474;1253;65755;-68
2023/09/10 08:34:55;;;;;;;5.80;2.30;;;;;;;18.96;42.68;101407.40;108180;1254;60541;-65
2023/09/10 08:37:23;;;;;;;4.60;2.00;;;;;;;19.09;43.07;101408.77;105108;1253;63846;-59
2023/09/10 08:39:51;;;;;;;5.80;2.10;;;;;;;19.23;42.90;101405.91;105115;1254;60610;-64
2023/09/10 08:42:26;;;;;;;5.60;2.00;;;;;;;19.34;41.92;101407.30;104774;1253;60957;-63
2023/09/10 08:45:00;;;;;;;4.30;1.90;;;;;;;19.41;41.02;101406.77;109267;1252;63621;-74
2023/09/10 08:47:29;;;;;;;6.30;1.80;;;;;;;19.43;40.20;101408.84;109235;1252;60076;-70
2023/09/10 08:50:06;;;;;;;7.50;1.90;;;;;;;19.45;40.04;101406.51;109153;1253;63727;-60
2023/09/10 08:52:37;;;;;;;3.90;1.60;;;;;;;19.49;39.83;101404.56;105356;1257;60560;-66
2023/09/10 08:55:08;;;;;;;5.10;1.90;;;;;;;19.55;40.19;101405.73;105407;1253;60536;-64
2023/09/10 08:57:39;;;;;;;5.80;1.50;;;;;;;19.62;40.26;101402.27;105083;1257;65081;-63
2023/09/10 09:00:12;;;;;;;7.40;1.80;;;;;;;19.71;39.96;101402.27;105198;1253;61568;-55
2023/09/10 09:02:42;;;;;;;4.30;1.50;;;;;;;19.76;39.45;101403.02;105202;1256;71364;-66
2023/09/10 09:05:10;;;;;;;5.20;1.80;;;;;;;19.79;39.64;101400.77;106061;1256;60483;-66
2023/09/10 09:07:51;;;;;;;5.70;1.70;;;;;;;19.84;39.52;101397.23;105111;1253;61224;-61
2023/09/10 09:10:25;;;;;;;3.70;1.40;;;;;;;19.91;39.32;101394.96;105923;1253;66871;-71
2023/09/10 09:13:04;;;;;;;5.30;1.60;;;;;;;19.95;39.52;101397.25;105836;1252;61368;-70
2023/09/10 09:15:32;;;;;;;4.10;1.60;;;;;;;19.97;39.36;101392.48;105605;1257;63789;-71
2023/09/10 09:17:59;;;;;;;3.90;1.50;;;;;;;20.03;39.36;101389.77;105504;1259;60535;-64
2023/09/10 09:20:27;;;;;;;5.30;1.60;;;;;;;20.10;39.67;101391.69;105171;1257;60464;-64
2023/09/10 09:22:58;;;;;;;3.70;1.40;;;;;;;20.23;39.69;101388.73;104830;1260;64926;-65
2023/09/10 09:25:27;;;;;;;4.10;1.60;;;;;;;20.34;39.82;101387.98;104694;1253;61372;-61
2023/09/10 09:27:55;;;;;;;4.10;1.60;;;;;;;20.42;39.46;101385.20;104895;1257;63711;-59
2023/09/10 09:30:22;;;;;;;4.20;1.80;;;;;;;20.49;39.55;101384.95;104677;1254;60775;-63
2023/09/10 09:32:49;;;;;;;4.90;1.70;;;;;;;20.55;39.08;101381.59;104685;1253;60338;-67
2023/09/10 09:35:18;;;;;;;5.10;1.90;;;;;;;20.61;38.50;101374.61;104674;1253;63644;-69
2023/09/10 09:37:45;;;;;;;5.20;1.50;;;;;;;20.64;38.05;101371.27;104789;1253;60543;-67
2023/09/10 09:40:13;;;;;;;3.60;1.40;;;;;;;20.70;38.51;101371.34;105001;1253;62475;-60
2023/09/10 09:42:41;;;;;;;4.70;1.80;;;;;;;20.77;38.57;101364.17;109037;1253;58471;-67
2023/09/10 09:45:09;;;;;;;4.20;1.40;;;;;;;20.84;38.08;101364.85;109263;1252;58282;-62
2023/09/10 09:47:37;;;;;;;4.40;1.70;;;;;;;20.84;38.37;101361.84;109250;1253;64913;-67
2023/09/10 09:50:05;;;;;;;5.70;1.90;;;;;;;20.87;38.00;101360.90;109232;1253;60115;-61
2023/09/10 09:52:33;;;;;;;3.90;1.40;;;;;;;20.94;37.90;101359.80;109156;1252;62882;-65
2023/09/10 09:55:05;;;;;;;4.20;1.80;;;;;;;21.04;37.79;101358.36;109117;1255;58277;-72
2023/09/10 09:57:36;;;;;;;8.90;1.70;;;;;;;21.13;36.95;101358.41;108399;1253;60474;-68
2023/09/10 10:00:08;;;;;;;3.80;1.60;;;;;;;21.20;37.24;101360.77;109263;1252;72679;-61
2023/09/10 10:02:36;;;;;;;4.90;1.80;;;;;;;21.25;37.46;101356.50;108068;1252;60538;-54
2023/09/10 10:05:04;;;;;;;5.50;1.80;;;;;;;21.29;36.90;101352.73;105234;1255;63718;-60
2023/09/10 10:07:34;;;;;;;4.20;1.60;;;;;;;21.35;37.20;101351.73;105924;1252;60508;-73
2023/09/10 10:10:06;;;;;;;4.50;1.70;;;;;;;21.40;36.61;101349.84;105118;1253;60825;-68
2023/09/10 10:12:33;;;;;;;3.70;1.50;;;;;;;21.44;37.18;101340.12;105422;1253;63929;-63
2023/09/10 10:15:01;;;;;;;3.60;1.50;;;;;;;21.49;37.08;101340.59;105117;1255;61471;-62
2023/09/10 10:17:28;;;;;;;3.10;1.30;;;;;;;21.52;36.38;101337.98;105096;1254;63792;-64
2023/09/10 10:19:56;;;;;;;4.00;1.30;;;;;;;21.54;36.40;101335.66;105200;1254;60465;-63
2023/09/10 10:22:24;;;;;;;4.60;1.70;;;;;;;21.58;36.95;101331.96;105122;1258;60357;-63
2023/09/10 10:24:51;;;;;;;4.60;1.40;;;;;;;21.65;36.29;101327.54;105229;1253;63648;-65
2023/09/10 10:27:19;;;;;;;4.10;1.50;;;;;;;21.73;35.96;101324.74;105664;1254;61440;-60
2023/09/10 10:29:47;;;;;;;3.90;1.70;;;;;;;21.78;35.85;101325.63;105115;1253;63671;-71
2023/09/10 10:32:34;;;;;;;4.90;1.60;;;;;;;21.81;35.54;101321.67;105136;1253;60635;-62
2023/09/10 10:35:05;;;;;;;3.80;1.70;;;;;;;21.82;34.57;101318.48;105307;1256;60341;-63
2023/09/10 10:37:35;;;;;;;3.20;1.20;;;;;;;21.78;34.26;101318.13;106420;1257;64870;-63
2023/09/10 10:40:13;;;;;;;4.40;1.60;;;;;;;21.72;34.64;101316.65;105568;1257;60416;-62
2023/09/10 10:42:48;;;;;;;4.60;1.40;;;;;;;21.67;34.56;101315.76;105264;1254;63740;-62
2023/09/10 10:45:17;;;;;;;5.10;1.70;;;;;;;21.63;35.09;101312.39;106032;1257;60556;-64
2023/09/10 10:47:45;;;;;;;5.20;1.60;;;;;;;21.66;34.91;101310.64;106052;1258;60501;-61
2023/09/10 10:50:15;;;;;;;4.40;1.70;;;;;;;21.73;34.75;101310.95;105341;1255;64941;-67
2023/09/10 10:52:58;;;;;;;4.00;1.60;;;;;;;21.81;34.68;101306.45;105269;1253;60588;-60
2023/09/10 10:55:26;;;;;;;5.10;1.50;;;;;;;21.90;34.25;101303.17;106430;1257;62474;-63
2023/09/10 10:57:53;;;;;;;4.40;1.70;;;;;;;21.96;34.03;101299.75;104938;1253;60533;-56
2023/09/10 11:00:21;;;;;;;4.40;1.80;;;;;;;22.01;33.63;101296.59;104899;1257;60535;-62
2023/09/10 11:02:49;;;;;;;5.10;1.70;;;;;;;22.05;33.46;101294.85;107396;1256;63918;-66
2023/09/10 11:05:17;;;;;;;6.10;1.40;;;;;;;22.07;33.12;101292.64;105690;1253;62262;-61
2023/09/10 11:07:45;;;;;;;3.60;1.50;;;;;;;22.08;32.96;101288.56;104954;1253;65841;-56
2023/09/10 11:10:28;;;;;;;4.30;1.50;;;;;;;22.10;33.44;101284.04;104954;1253;60476;-54
2023/09/10 11:13:09;;;;;;;3.90;1.60;;;;;;;22.19;33.74;101283.73;105607;1257;61145;-64
2023/09/10 11:16:06;;;;;;;4.60;1.60;;;;;;;22.34;33.63;101281.92;107057;1252;63847;-59
2023/09/10 11:18:37;;;;;;;3.70;1.60;;;;;;;22.47;33.23;101279.83;105155;1253;61386;-57
2023/09/10 11:21:15;;;;;;;5.70;1.50;;;;;;;22.55;32.81;101276.01;106290;1255;63712;-59
2023/09/10 11:23:51;;;;;;;4.30;1.60;;;;;;;22.63;32.89;101271.55;109131;1253;59002;-59